createdAt,value
2023-02-02T00:00:00.881Z,0.1
2023-02-02T00:15:01.376Z,0.1
2023-02-02T06:12:00.686Z,0.1
2023-02-02T06:14:00.621Z,0.2
2023-02-02T06:17:00.641Z,0.5
2023-02-02T06:18:00.571Z,0.6
2023-02-02T06:19:00.653Z,0.7
2023-02-02T06:21:01.875Z,1.0
2023-02-02T06:22:00.600Z,1.3
2023-02-02T06:23:00.558Z,1.5
2023-02-02T06:24:00.554Z,1.8
2023-02-02T06:25:01.257Z,2.1
2023-02-02T06:26:00.557Z,2.5
2023-02-02T06:27:05.409Z,2.9
2023-02-02T06:28:00.602Z,3.4
2023-02-02T06:29:00.553Z,3.9
2023-02-02T06:30:01.354Z,4.6
2023-02-02T06:31:00.646Z,5.3
2023-02-02T06:32:00.729Z,6.4
2023-02-02T06:33:00.550Z,7.5
2023-02-02T06:34:00.585Z,8.5
2023-02-02T06:35:01.431Z,10.3
2023-02-02T06:36:00.614Z,12.0
2023-02-02T06:37:00.653Z,14.4
2023-02-02T06:38:00.643Z,16.8
2023-02-02T06:39:00.604Z,19.2
2023-02-02T06:40:00.704Z,22.9
2023-02-02T06:41:00.585Z,26.7
2023-02-02T06:42:08.893Z,32.4
2023-02-02T06:43:05.560Z,38.1
2023-02-02T06:44:00.541Z,43.9
2023-02-02T06:46:00.703Z,61.1
2023-02-02T06:47:00.544Z,73.9
2023-02-02T06:48:00.585Z,86.7
2023-02-02T06:49:00.555Z,99.5
2023-02-02T06:50:00.672Z,118.2
2023-02-02T06:51:00.549Z,136.9
2023-02-02T06:52:00.554Z,163.9
2023-02-02T06:53:00.555Z,190.8
2023-02-02T06:54:00.547Z,217.7
2023-02-02T06:55:00.627Z,254.9
2023-02-02T06:56:00.584Z,292.0
2023-02-02T06:57:05.782Z,343.3
2023-02-02T06:58:00.564Z,394.5
2023-02-02T06:59:00.591Z,445.8
2023-02-02T07:00:01.344Z,513.9
2023-02-02T07:01:00.587Z,582.1
2023-02-02T07:02:05.758Z,667.9
2023-02-02T07:03:00.599Z,753.7
2023-02-02T07:04:00.561Z,839.5
2023-02-02T07:05:00.613Z,944.5
2023-02-02T07:06:00.680Z,1049.6
2023-02-02T07:07:00.564Z,1175.2
2023-02-02T07:08:00.644Z,1300.8
2023-02-02T07:09:02.392Z,1426.4
2023-02-02T07:11:09.299Z,1720.3
2023-02-02T07:12:00.739Z,1891.2
2023-02-02T07:13:00.913Z,2062.1
2023-02-02T07:14:00.744Z,2233.1
2023-02-02T07:15:01.674Z,2421.7
2023-02-02T07:16:00.801Z,2610.3
2023-02-02T07:17:00.729Z,2799.3
2023-02-02T07:18:00.791Z,2988.3
2023-02-02T07:19:00.691Z,3177.3
2023-02-02T07:20:00.794Z,3388.3
2023-02-02T07:21:00.704Z,3599.4
2023-02-02T07:22:00.710Z,3853.8
2023-02-02T07:23:00.732Z,4108.2
2023-02-02T07:24:00.701Z,4362.6
2023-02-02T07:25:00.831Z,4649.2
2023-02-02T07:26:00.817Z,4935.8
2023-02-02T07:27:00.763Z,5272.1
2023-02-02T07:28:00.751Z,5608.5
2023-02-02T07:29:00.714Z,5944.8
2023-02-02T07:30:01.907Z,6380.3
2023-02-02T07:31:00.829Z,6815.9
2023-02-02T07:32:00.720Z,7336.6
2023-02-02T07:33:00.831Z,7857.3
2023-02-02T07:34:00.777Z,8378.1
2023-02-02T07:35:01.048Z,8981.3
2023-02-02T07:36:00.777Z,9584.5
2023-02-02T07:37:00.611Z,10050.5
2023-02-02T07:38:00.691Z,10516.6
2023-02-02T07:39:05.917Z,10982.7
2023-02-02T07:40:00.686Z,11400.8
2023-02-02T07:41:00.565Z,11818.9
2023-02-02T07:42:00.614Z,12180.6
2023-02-02T07:43:00.634Z,12542.3
2023-02-02T07:44:00.621Z,12903.9
2023-02-02T07:45:24.475Z,13359.9
2023-02-02T07:46:00.613Z,13815.9
2023-02-02T07:47:00.618Z,14083.0
2023-02-02T07:48:01.765Z,14350.1
2023-02-02T07:49:00.615Z,14617.1
2023-02-02T07:51:00.575Z,15082.3
2023-02-02T07:52:00.669Z,15501.5
2023-02-02T07:53:00.665Z,15920.7
2023-02-02T07:54:00.589Z,16339.9
2023-02-02T07:56:00.585Z,16771.4
2023-02-02T07:57:00.675Z,17017.2
2023-02-02T07:58:00.757Z,17263.0
2023-02-02T07:59:00.722Z,17508.8
2023-02-02T08:00:01.535Z,17666.9
2023-02-02T08:01:00.799Z,17825.1
2023-02-02T08:02:00.768Z,18494.1
2023-02-02T08:03:00.770Z,19163.1
2023-02-02T08:04:00.660Z,19832.1
2023-02-02T08:05:00.633Z,20521.7
2023-02-02T08:06:00.585Z,21211.4
2023-02-02T08:07:00.577Z,21808.0
2023-02-02T08:08:00.663Z,22404.6
2023-02-02T08:09:00.587Z,23001.2
2023-02-02T08:10:01.428Z,23885.3
2023-02-02T08:11:00.580Z,24769.5
2023-02-02T08:12:00.594Z,25805.9
2023-02-02T08:13:00.619Z,26842.3
2023-02-02T08:14:00.596Z,27878.7
2023-02-02T08:16:00.676Z,29454.5
2023-02-02T08:17:00.666Z,29713.7
2023-02-02T08:18:00.594Z,29972.8
2023-02-02T08:19:00.638Z,30231.9
2023-02-02T08:20:00.631Z,30669.9
2023-02-02T08:21:00.635Z,31107.9
2023-02-02T08:22:00.585Z,31940.9
2023-02-02T08:23:00.590Z,32773.9
2023-02-02T08:24:00.579Z,33606.9
2023-02-02T08:25:00.725Z,34323.4
2023-02-02T08:26:00.575Z,35039.9
2023-02-02T08:27:00.720Z,36398.9
2023-02-02T08:28:00.581Z,37757.9
2023-02-02T08:29:01.760Z,39116.9
2023-02-02T08:31:00.638Z,43647.4
2023-02-02T08:32:00.674Z,46011.7
2023-02-02T08:33:00.635Z,48375.9
2023-02-02T08:34:00.628Z,50740.2
2023-02-02T08:36:00.584Z,54877.8
2023-02-02T08:37:00.862Z,56522.3
2023-02-02T08:38:00.594Z,58166.9
2023-02-02T08:39:02.720Z,59811.4
2023-02-02T08:40:01.582Z,61471.2
2023-02-02T08:41:00.635Z,63131.0
2023-02-02T08:42:00.576Z,63932.3
2023-02-02T08:43:00.643Z,64733.7
2023-02-02T08:44:00.409Z,65535.0
2023-02-02T08:46:00.895Z,65535.0
2023-02-02T09:15:01.324Z,65535.0
2023-02-02T09:25:01.456Z,64436.5
2023-02-02T09:26:00.403Z,63338.1
2023-02-02T10:15:02.671Z,65535.0
2023-02-02T10:45:01.354Z,65535.0
2023-02-02T11:00:06.825Z,65535.0
2023-02-02T11:30:01.612Z,65535.0
2023-02-02T11:45:02.319Z,65535.0
2023-02-02T12:15:01.359Z,65535.0
2023-02-02T12:30:01.569Z,65535.0
2023-02-02T12:52:00.416Z,65089.7
2023-02-02T12:53:00.400Z,64644.5
2023-02-02T12:54:34.024Z,64199.2
2023-02-02T13:02:00.429Z,63454.2
2023-02-02T13:03:00.400Z,62709.2
2023-02-02T13:04:00.425Z,61964.2
2023-02-02T13:05:16.502Z,61075.9
2023-02-02T13:06:00.385Z,60187.7
2023-02-02T13:07:00.389Z,60309.4
2023-02-02T13:08:01.441Z,60431.1
2023-02-02T13:09:00.424Z,60552.9
2023-02-02T13:11:00.458Z,59747.9
2023-02-02T13:15:01.463Z,59747.9
2023-02-02T13:17:00.438Z,60492.9
2023-02-02T13:18:00.579Z,61237.9
2023-02-02T13:19:00.390Z,61982.9
2023-02-02T13:21:00.404Z,63759.5
2023-02-02T13:22:00.423Z,64083.0
2023-02-02T13:23:00.403Z,64406.5
2023-02-02T13:24:00.421Z,64730.1
2023-02-02T13:26:00.417Z,65535.0
2023-02-02T13:32:00.447Z,65364.3
2023-02-02T13:33:00.396Z,65193.7
2023-02-02T13:34:00.438Z,65023.0
2023-02-02T13:45:02.219Z,65023.0
2023-02-02T13:47:00.449Z,65193.7
2023-02-02T13:48:00.412Z,65364.3
2023-02-02T13:49:00.487Z,65535.0
2023-02-02T14:16:00.500Z,65466.5
2023-02-02T14:17:00.433Z,65084.5
2023-02-02T14:18:00.418Z,64702.6
2023-02-02T14:19:00.417Z,64320.7
2023-02-02T14:20:00.767Z,63687.1
2023-02-02T14:21:00.460Z,63053.6
2023-02-02T14:22:05.419Z,62735.3
2023-02-02T14:23:00.419Z,62416.9
2023-02-02T14:24:00.426Z,62098.6
2023-02-02T14:25:01.920Z,61461.8
2023-02-02T14:26:00.450Z,60825.0
2023-02-02T14:27:00.566Z,59923.3
2023-02-02T14:28:00.428Z,59021.7
2023-02-02T14:29:00.423Z,58120.0
2023-02-02T14:30:01.716Z,57054.7
2023-02-02T14:31:00.769Z,55989.5
2023-02-02T14:32:00.594Z,55130.2
2023-02-02T14:33:00.564Z,54270.9
2023-02-02T14:34:00.502Z,53411.7
2023-02-02T14:36:01.525Z,52025.3
2023-02-02T14:37:00.421Z,50964.4
2023-02-02T14:38:00.424Z,49903.5
2023-02-02T14:39:00.517Z,48842.7
2023-02-02T14:40:01.926Z,48007.8
2023-02-02T14:41:00.915Z,47172.9
2023-02-02T14:42:00.955Z,46415.3
2023-02-02T14:43:00.499Z,45657.6
2023-02-02T14:44:00.451Z,44899.9
2023-02-02T14:45:01.574Z,44147.8
2023-02-02T14:46:00.472Z,43395.7
2023-02-02T14:47:00.447Z,42640.6
2023-02-02T14:48:00.832Z,41885.5
2023-02-02T14:49:00.444Z,41130.5
2023-02-02T14:50:01.315Z,40408.2
2023-02-02T14:51:00.874Z,39685.9
2023-02-02T14:52:00.453Z,38936.6
2023-02-02T14:53:00.421Z,38187.3
2023-02-02T14:54:01.314Z,37437.9
2023-02-02T14:56:00.467Z,35971.8
2023-02-02T14:57:00.450Z,35364.0
2023-02-02T14:58:00.432Z,34756.2
2023-02-02T14:59:00.548Z,34148.4
2023-02-02T15:01:00.472Z,33206.9
2023-02-02T15:02:00.463Z,32845.5
2023-02-02T15:03:00.618Z,32484.0
2023-02-02T15:04:00.571Z,32122.5
2023-02-02T15:06:00.461Z,31425.9
2023-02-02T15:07:00.424Z,31154.6
2023-02-02T15:08:00.426Z,30883.3
2023-02-02T15:09:00.424Z,30612.1
2023-02-02T15:10:01.686Z,30332.1
2023-02-02T15:11:00.481Z,30052.1
2023-02-02T15:12:01.578Z,29679.9
2023-02-02T15:13:00.429Z,29307.8
2023-02-02T15:14:00.432Z,28935.7
2023-02-02T15:15:01.344Z,28487.5
2023-02-02T15:16:00.526Z,28039.4
2023-02-02T15:17:00.432Z,27572.7
2023-02-02T15:18:01.092Z,27106.1
2023-02-02T15:19:00.876Z,26639.4
2023-02-02T15:20:31.078Z,26186.0
2023-02-02T15:21:02.552Z,25732.6
2023-02-02T15:22:00.563Z,25253.7
2023-02-02T15:23:00.430Z,24774.9
